sensor_id;sensor_type;location;lat;lon;timestamp;temperature;humidity
40670;DHT22;26355;45.528;9.234;2023-06-14T00:00:39;22.60;99.90
40670;DHT22;26355;45.528;9.234;2023-06-14T00:03:06;22.40;99.90
40670;DHT22;26355;45.528;9.234;2023-06-14T00:05:33;21.70;99.90
40670;DHT22;26355;45.528;9.234;2023-06-14T00:08:04;21.50;99.90
40670;DHT22;26355;45.528;9.234;2023-06-14T00:10:32;21.60;99.90
40670;DHT22;26355;45.528;9.234;2023-06-14T00:13:01;21.70;99.90
40670;DHT22;26355;45.528;9.234;2023-06-14T00:15:26;21.70;99.90
40670;DHT22;26355;45.528;9.234;2023-06-14T00:17:52;21.70;99.90
40670;DHT22;26355;45.528;9.234;2023-06-14T00:20:17;21.70;99.90
40670;DHT22;26355;45.528;9.234;2023-06-14T00:22:43;21.80;99.90
40670;DHT22;26355;45.528;9.234;2023-06-14T00:25:10;21.80;99.90
40670;DHT22;26355;45.528;9.234;2023-06-14T00:27:36;21.90;99.90
40670;DHT22;26355;45.528;9.234;2023-06-14T00:30:01;21.90;99.90
40670;DHT22;26355;45.528;9.234;2023-06-14T00:32:27;21.80;99.90
40670;DHT22;26355;45.528;9.234;2023-06-14T00:34:53;21.80;99.90
40670;DHT22;26355;45.528;9.234;2023-06-14T00:37:18;21.80;99.90
40670;DHT22;26355;45.528;9.234;2023-06-14T00:39:44;21.80;99.90
40670;DHT22;26355;45.528;9.234;2023-06-14T00:42:09;21.80;99.90
40670;DHT22;26355;45.528;9.234;2023-06-14T00:44:35;21.80;99.90
40670;DHT22;26355;45.528;9.234;2023-06-14T00:47:01;21.80;99.90
40670;DHT22;26355;45.528;9.234;2023-06-14T00:49:27;21.70;99.90
40670;DHT22;26355;45.528;9.234;2023-06-14T00:51:54;21.70;99.90
40670;DHT22;26355;45.528;9.234;2023-06-14T00:54:20;21.80;99.90
40670;DHT22;26355;45.528;9.234;2023-06-14T00:56:46;21.60;99.90
40670;DHT22;26355;45.528;9.234;2023-06-14T00:59:12;21.60;99.90
40670;DHT22;26355;45.528;9.234;2023-06-14T01:01:38;21.50;99.90
40670;DHT22;26355;45.528;9.234;2023-06-14T01:04:04;21.70;99.90
40670;DHT22;26355;45.528;9.234;2023-06-14T01:06:45;21.60;99.90
40670;DHT22;26355;45.528;9.234;2023-06-14T01:09:31;21.60;99.90
40670;DHT22;26355;45.528;9.234;2023-06-14T01:14:26;21.50;99.90
40670;DHT22;26355;45.528;9.234;2023-06-14T01:16:53;21.40;99.90
40670;DHT22;26355;45.528;9.234;2023-06-14T01:19:19;21.40;99.90
40670;DHT22;26355;45.528;9.234;2023-06-14T01:21:48;21.40;99.90
40670;DHT22;26355;45.528;9.234;2023-06-14T01:24:16;21.50;99.90
40670;DHT22;26355;45.528;9.234;2023-06-14T01:26:45;21.60;99.90
40670;DHT22;26355;45.528;9.234;2023-06-14T01:29:13;21.60;99.90
40670;DHT22;26355;45.528;9.234;2023-06-14T01:31:42;21.60;99.90
40670;DHT22;26355;45.528;9.234;2023-06-14T01:34:07;21.50;99.90
40670;DHT22;26355;45.528;9.234;2023-06-14T01:36:36;21.50;99.90
40670;DHT22;26355;45.528;9.234;2023-06-14T01:39:05;21.60;99.90
40670;DHT22;26355;45.528;9.234;2023-06-14T01:41:31;21.50;99.90
40670;DHT22;26355;45.528;9.234;2023-06-14T01:43:58;21.60;99.90
40670;DHT22;26355;45.528;9.234;2023-06-14T01:46:24;21.50;99.90
40670;DHT22;26355;45.528;9.234;2023-06-14T01:48:50;21.50;99.90
40670;DHT22;26355;45.528;9.234;2023-06-14T01:51:16;21.50;99.90
40670;DHT22;26355;45.528;9.234;2023-06-14T01:53:42;21.60;99.90
40670;DHT22;26355;45.528;9.234;2023-06-14T01:56:07;21.60;99.90
40670;DHT22;26355;45.528;9.234;2023-06-14T01:58:33;21.50;99.90
40670;DHT22;26355;45.528;9.234;2023-06-14T02:00:58;21.60;99.90
40670;DHT22;26355;45.528;9.234;2023-06-14T02:03:26;21.60;99.90
40670;DHT22;26355;45.528;9.234;2023-06-14T02:05:52;21.50;99.90
40670;DHT22;26355;45.528;9.234;2023-06-14T02:08:18;21.60;99.90
40670;DHT22;26355;45.528;9.234;2023-06-14T02:10:43;21.50;99.90
40670;DHT22;26355;45.528;9.234;2023-06-14T02:13:09;21.50;99.90
40670;DHT22;26355;45.528;9.234;2023-06-14T02:15:35;21.40;99.90
40670;DHT22;26355;45.528;9.234;2023-06-14T02:18:01;21.40;99.90
40670;DHT22;26355;45.528;9.234;2023-06-14T02:20:28;21.40;99.90
40670;DHT22;26355;45.528;9.234;2023-06-14T02:22:57;21.40;99.90
40670;DHT22;26355;45.528;9.234;2023-06-14T02:25:23;21.40;99.90
40670;DHT22;26355;45.528;9.234;2023-06-14T02:27:48;21.40;99.90
40670;DHT22;26355;45.528;9.234;2023-06-14T02:30:14;21.40;99.90
40670;DHT22;26355;45.528;9.234;2023-06-14T02:32:40;21.50;99.90
40670;DHT22;26355;45.528;9.234;2023-06-14T02:35:08;21.40;99.90
40670;DHT22;26355;45.528;9.234;2023-06-14T02:37:33;21.40;99.90
40670;DHT22;26355;45.528;9.234;2023-06-14T02:39:59;21.40;99.90
40670;DHT22;26355;45.528;9.234;2023-06-14T02:42:25;21.40;99.90
40670;DHT22;26355;45.528;9.234;2023-06-14T02:44:50;21.40;99.90
40670;DHT22;26355;45.528;9.234;2023-06-14T02:47:18;21.40;99.90
40670;DHT22;26355;45.528;9.234;2023-06-14T02:49:44;21.30;99.90
40670;DHT22;26355;45.528;9.234;2023-06-14T02:52:11;21.30;99.90
40670;DHT22;26355;45.528;9.234;2023-06-14T02:54:37;21.30;99.90
40670;DHT22;26355;45.528;9.234;2023-06-14T02:57:03;21.30;99.90
40670;DHT22;26355;45.528;9.234;2023-06-14T02:59:28;21.20;99.90
40670;DHT22;26355;45.528;9.234;2023-06-14T03:01:54;21.20;99.90
40670;DHT22;26355;45.528;9.234;2023-06-14T03:04:19;21.20;99.90
40670;DHT22;26355;45.528;9.234;2023-06-14T03:06:46;21.10;99.90
40670;DHT22;26355;45.528;9.234;2023-06-14T03:09:15;21.10;99.90
40670;DHT22;26355;45.528;9.234;2023-06-14T03:11:41;21.10;99.90
40670;DHT22;26355;45.528;9.234;2023-06-14T03:14:07;21.00;99.90
40670;DHT22;26355;45.528;9.234;2023-06-14T03:16:33;21.10;99.90
40670;DHT22;26355;45.528;9.234;2023-06-14T03:18:59;21.10;99.90
40670;DHT22;26355;45.528;9.234;2023-06-14T03:21:25;21.10;99.90
40670;DHT22;26355;45.528;9.234;2023-06-14T03:23:51;21.10;99.90
40670;DHT22;26355;45.528;9.234;2023-06-14T03:26:18;21.10;99.90
40670;DHT22;26355;45.528;9.234;2023-06-14T03:28:47;21.00;99.90
40670;DHT22;26355;45.528;9.234;2023-06-14T03:31:14;21.10;99.90
40670;DHT22;26355;45.528;9.234;2023-06-14T03:33:41;21.00;99.90
40670;DHT22;26355;45.528;9.234;2023-06-14T03:36:07;21.00;99.90
40670;DHT22;26355;45.528;9.234;2023-06-14T03:38:32;21.00;99.90
40670;DHT22;26355;45.528;9.234;2023-06-14T03:40:58;21.00;99.90
40670;DHT22;26355;45.528;9.234;2023-06-14T03:43:24;21.00;99.90
40670;DHT22;26355;45.528;9.234;2023-06-14T03:45:50;20.90;99.90
40670;DHT22;26355;45.528;9.234;2023-06-14T03:48:16;20.90;99.90
40670;DHT22;26355;45.528;9.234;2023-06-14T03:50:42;20.90;99.90
40670;DHT22;26355;45.528;9.234;2023-06-14T03:53:08;20.90;99.90
40670;DHT22;26355;45.528;9.234;2023-06-14T03:55:34;20.90;99.90
40670;DHT22;26355;45.528;9.234;2023-06-14T03:58:00;20.90;99.90
40670;DHT22;26355;45.528;9.234;2023-06-14T04:00:26;20.90;99.90
40670;DHT22;26355;45.528;9.234;2023-06-14T04:02:52;20.90;99.90
40670;DHT22;26355;45.528;9.234;2023-06-14T04:05:19;20.80;99.90
40670;DHT22;26355;45.528;9.234;2023-06-14T04:07:45;21.00;99.90
40670;DHT22;26355;45.528;9.234;2023-06-14T04:10:15;20.90;99.90
40670;DHT22;26355;45.528;9.234;2023-06-14T04:12:41;20.90;99.90
40670;DHT22;26355;45.528;9.234;2023-06-14T04:15:07;20.90;99.90
40670;DHT22;26355;45.528;9.234;2023-06-14T04:17:34;20.90;99.90
40670;DHT22;26355;45.528;9.234;2023-06-14T04:20:00;20.90;99.90
40670;DHT22;26355;45.528;9.234;2023-06-14T04:22:26;20.90;99.90
40670;DHT22;26355;45.528;9.234;2023-06-14T04:24:55;20.90;99.90
40670;DHT22;26355;45.528;9.234;2023-06-14T04:27:25;20.90;99.90
40670;DHT22;26355;45.528;9.234;2023-06-14T04:29:55;20.90;99.90
40670;DHT22;26355;45.528;9.234;2023-06-14T04:32:28;20.90;99.90
40670;DHT22;26355;45.528;9.234;2023-06-14T04:34:55;20.90;99.90
40670;DHT22;26355;45.528;9.234;2023-06-14T04:37:21;20.90;99.90
40670;DHT22;26355;45.528;9.234;2023-06-14T04:39:50;20.80;99.90
40670;DHT22;26355;45.528;9.234;2023-06-14T04:42:17;20.90;99.90
40670;DHT22;26355;45.528;9.234;2023-06-14T04:44:45;20.90;99.90
40670;DHT22;26355;45.528;9.234;2023-06-14T04:47:13;20.90;99.90
40670;DHT22;26355;45.528;9.234;2023-06-14T04:49:39;20.80;99.90
40670;DHT22;26355;45.528;9.234;2023-06-14T04:52:06;20.90;99.90
40670;DHT22;26355;45.528;9.234;2023-06-14T04:54:32;20.90;99.90
40670;DHT22;26355;45.528;9.234;2023-06-14T04:56:59;20.80;99.90
40670;DHT22;26355;45.528;9.234;2023-06-14T04:59:24;20.80;99.90
40670;DHT22;26355;45.528;9.234;2023-06-14T05:01:50;20.80;99.90
40670;DHT22;26355;45.528;9.234;2023-06-14T05:04:19;20.80;99.90
40670;DHT22;26355;45.528;9.234;2023-06-14T05:06:46;20.90;99.90
40670;DHT22;26355;45.528;9.234;2023-06-14T05:09:15;20.90;99.90
40670;DHT22;26355;45.528;9.234;2023-06-14T05:11:43;20.90;99.90
40670;DHT22;26355;45.528;9.234;2023-06-14T05:14:10;20.80;99.90
40670;DHT22;26355;45.528;9.234;2023-06-14T05:16:36;20.90;99.90
40670;DHT22;26355;45.528;9.234;2023-06-14T05:19:02;21.00;99.90
40670;DHT22;26355;45.528;9.234;2023-06-14T05:21:29;21.00;99.90
40670;DHT22;26355;45.528;9.234;2023-06-14T05:23:55;20.90;99.90
40670;DHT22;26355;45.528;9.234;2023-06-14T05:26:21;21.00;99.90
40670;DHT22;26355;45.528;9.234;2023-06-14T05:28:48;21.00;99.90
40670;DHT22;26355;45.528;9.234;2023-06-14T05:31:15;21.00;99.90
40670;DHT22;26355;45.528;9.234;2023-06-14T05:33:41;21.00;99.90
40670;DHT22;26355;45.528;9.234;2023-06-14T05:36:06;21.10;99.90
40670;DHT22;26355;45.528;9.234;2023-06-14T05:38:32;21.20;99.90
40670;DHT22;26355;45.528;9.234;2023-06-14T05:40:57;21.30;99.90
40670;DHT22;26355;45.528;9.234;2023-06-14T05:43:24;21.20;99.90
40670;DHT22;26355;45.528;9.234;2023-06-14T05:45:49;21.20;99.90
40670;DHT22;26355;45.528;9.234;2023-06-14T05:48:15;21.30;99.90
40670;DHT22;26355;45.528;9.234;2023-06-14T05:50:40;21.30;99.90
40670;DHT22;26355;45.528;9.234;2023-06-14T05:53:06;21.30;99.90
40670;DHT22;26355;45.528;9.234;2023-06-14T05:55:32;21.30;99.90
40670;DHT22;26355;45.528;9.234;2023-06-14T05:57:57;21.30;99.90
40670;DHT22;26355;45.528;9.234;2023-06-14T06:00:23;21.40;99.90
40670;DHT22;26355;45.528;9.234;2023-06-14T06:02:48;21.50;99.90
40670;DHT22;26355;45.528;9.234;2023-06-14T06:05:14;21.60;99.90
40670;DHT22;26355;45.528;9.234;2023-06-14T06:07:41;21.60;99.90
40670;DHT22;26355;45.528;9.234;2023-06-14T06:10:07;21.70;99.90
40670;DHT22;26355;45.528;9.234;2023-06-14T06:12:33;21.70;99.90
40670;DHT22;26355;45.528;9.234;2023-06-14T06:14:59;21.80;99.90
40670;DHT22;26355;45.528;9.234;2023-06-14T06:17:25;21.80;99.90
40670;DHT22;26355;45.528;9.234;2023-06-14T06:19:51;21.90;99.90
40670;DHT22;26355;45.528;9.234;2023-06-14T06:22:17;21.90;99.90
40670;DHT22;26355;45.528;9.234;2023-06-14T06:24:42;22.00;99.90
40670;DHT22;26355;45.528;9.234;2023-06-14T06:27:08;22.00;99.90
40670;DHT22;26355;45.528;9.234;2023-06-14T06:29:34;22.00;99.90
40670;DHT22;26355;45.528;9.234;2023-06-14T06:32:00;22.10;99.90
40670;DHT22;26355;45.528;9.234;2023-06-14T06:34:26;22.20;99.90
40670;DHT22;26355;45.528;9.234;2023-06-14T06:36:52;22.30;99.90
40670;DHT22;26355;45.528;9.234;2023-06-14T06:39:17;22.20;99.90
40670;DHT22;26355;45.528;9.234;2023-06-14T06:41:43;22.30;99.90
40670;DHT22;26355;45.528;9.234;2023-06-14T06:44:08;22.30;99.90
40670;DHT22;26355;45.528;9.234;2023-06-14T06:46:36;22.30;99.90
40670;DHT22;26355;45.528;9.234;2023-06-14T06:49:06;22.40;99.90
40670;DHT22;26355;45.528;9.234;2023-06-14T06:51:31;22.30;99.90
40670;DHT22;26355;45.528;9.234;2023-06-14T06:53:58;22.40;99.90
40670;DHT22;26355;45.528;9.234;2023-06-14T06:56:23;22.30;99.90
40670;DHT22;26355;45.528;9.234;2023-06-14T06:58:50;22.40;99.90
40670;DHT22;26355;45.528;9.234;2023-06-14T07:01:16;22.40;99.90
40670;DHT22;26355;45.528;9.234;2023-06-14T07:03:42;22.50;99.90
40670;DHT22;26355;45.528;9.234;2023-06-14T07:06:08;22.50;99.90
40670;DHT22;26355;45.528;9.234;2023-06-14T07:08:34;22.40;99.90
40670;DHT22;26355;45.528;9.234;2023-06-14T07:10:59;22.50;99.90
40670;DHT22;26355;45.528;9.234;2023-06-14T07:13:25;22.50;99.90
40670;DHT22;26355;45.528;9.234;2023-06-14T07:15:53;22.50;99.90
40670;DHT22;26355;45.528;9.234;2023-06-14T07:18:19;22.50;99.90
40670;DHT22;26355;45.528;9.234;2023-06-14T07:20:45;22.50;99.90
40670;DHT22;26355;45.528;9.234;2023-06-14T07:23:10;22.50;99.90
40670;DHT22;26355;45.528;9.234;2023-06-14T07:25:36;22.60;99.90
40670;DHT22;26355;45.528;9.234;2023-06-14T07:28:02;22.60;99.90
40670;DHT22;26355;45.528;9.234;2023-06-14T07:30:27;22.70;99.90
40670;DHT22;26355;45.528;9.234;2023-06-14T07:32:55;22.70;99.90
40670;DHT22;26355;45.528;9.234;2023-06-14T07:35:21;22.70;99.90
40670;DHT22;26355;45.528;9.234;2023-06-14T07:37:47;22.70;99.90
40670;DHT22;26355;45.528;9.234;2023-06-14T07:40:13;22.80;99.90
40670;DHT22;26355;45.528;9.234;2023-06-14T07:42:39;22.80;99.90
40670;DHT22;26355;45.528;9.234;2023-06-14T07:45:05;22.80;99.90
40670;DHT22;26355;45.528;9.234;2023-06-14T07:47:32;22.90;99.90
40670;DHT22;26355;45.528;9.234;2023-06-14T07:49:58;22.90;99.90
40670;DHT22;26355;45.528;9.234;2023-06-14T07:52:23;22.90;99.90
40670;DHT22;26355;45.528;9.234;2023-06-14T07:54:50;23.00;99.90
40670;DHT22;26355;45.528;9.234;2023-06-14T07:57:15;23.00;99.90
40670;DHT22;26355;45.528;9.234;2023-06-14T07:59:41;23.00;99.90
40670;DHT22;26355;45.528;9.234;2023-06-14T08:02:07;23.00;99.90
40670;DHT22;26355;45.528;9.234;2023-06-14T08:04:32;23.10;99.90
40670;DHT22;26355;45.528;9.234;2023-06-14T08:06:59;23.20;99.90
40670;DHT22;26355;45.528;9.234;2023-06-14T08:09:25;23.20;99.90
40670;DHT22;26355;45.528;9.234;2023-06-14T08:11:52;23.30;99.90
40670;DHT22;26355;45.528;9.234;2023-06-14T08:14:18;23.30;99.90
40670;DHT22;26355;45.528;9.234;2023-06-14T08:16:44;23.40;99.90
40670;DHT22;26355;45.528;9.234;2023-06-14T08:19:09;23.40;99.90
40670;DHT22;26355;45.528;9.234;2023-06-14T08:21:35;23.40;99.90
40670;DHT22;26355;45.528;9.234;2023-06-14T08:24:02;23.40;99.90
40670;DHT22;26355;45.528;9.234;2023-06-14T08:26:28;23.40;99.90
40670;DHT22;26355;45.528;9.234;2023-06-14T08:28:57;23.40;99.90
40670;DHT22;26355;45.528;9.234;2023-06-14T08:31:23;23.40;99.90
40670;DHT22;26355;45.528;9.234;2023-06-14T08:33:49;23.50;99.90
40670;DHT22;26355;45.528;9.234;2023-06-14T08:36:15;23.60;99.90
40670;DHT22;26355;45.528;9.234;2023-06-14T08:38:41;23.60;99.90
40670;DHT22;26355;45.528;9.234;2023-06-14T08:41:07;23.70;99.90
40670;DHT22;26355;45.528;9.234;2023-06-14T08:43:33;23.70;99.90
40670;DHT22;26355;45.528;9.234;2023-06-14T08:46:03;23.70;99.90
40670;DHT22;26355;45.528;9.234;2023-06-14T08:48:30;23.70;99.90
40670;DHT22;26355;45.528;9.234;2023-06-14T08:50:59;23.80;99.90
40670;DHT22;26355;45.528;9.234;2023-06-14T08:53:31;23.80;99.90
40670;DHT22;26355;45.528;9.234;2023-06-14T08:55:58;23.80;99.90
40670;DHT22;26355;45.528;9.234;2023-06-14T08:58:27;23.90;99.90
40670;DHT22;26355;45.528;9.234;2023-06-14T09:00:55;23.90;99.90
40670;DHT22;26355;45.528;9.234;2023-06-14T09:03:21;24.10;99.90
40670;DHT22;26355;45.528;9.234;2023-06-14T09:05:47;24.20;99.90
40670;DHT22;26355;45.528;9.234;2023-06-14T09:08:13;24.20;99.90
40670;DHT22;26355;45.528;9.234;2023-06-14T09:10:40;24.20;99.90
40670;DHT22;26355;45.528;9.234;2023-06-14T09:13:05;24.30;99.90
40670;DHT22;26355;45.528;9.234;2023-06-14T09:15:32;24.20;99.90
40670;DHT22;26355;45.528;9.234;2023-06-14T09:17:58;24.30;99.90
40670;DHT22;26355;45.528;9.234;2023-06-14T09:20:26;24.50;99.90
40670;DHT22;26355;45.528;9.234;2023-06-14T09:22:53;24.50;99.90
40670;DHT22;26355;45.528;9.234;2023-06-14T09:25:21;24.40;99.90
40670;DHT22;26355;45.528;9.234;2023-06-14T09:27:48;24.60;99.90
40670;DHT22;26355;45.528;9.234;2023-06-14T09:30:13;24.70;99.90
40670;DHT22;26355;45.528;9.234;2023-06-14T09:32:39;24.80;99.90
40670;DHT22;26355;45.528;9.234;2023-06-14T09:35:09;25.00;99.90
40670;DHT22;26355;45.528;9.234;2023-06-14T09:37:35;25.00;99.90
40670;DHT22;26355;45.528;9.234;2023-06-14T09:40:03;25.00;99.90
40670;DHT22;26355;45.528;9.234;2023-06-14T09:42:29;25.10;99.90
40670;DHT22;26355;45.528;9.234;2023-06-14T09:44:56;25.10;99.90
40670;DHT22;26355;45.528;9.234;2023-06-14T09:47:23;25.20;99.90
40670;DHT22;26355;45.528;9.234;2023-06-14T09:49:50;25.10;99.90
40670;DHT22;26355;45.528;9.234;2023-06-14T09:52:18;25.20;99.90
40670;DHT22;26355;45.528;9.234;2023-06-14T09:54:46;24.90;99.90
40670;DHT22;26355;45.528;9.234;2023-06-14T09:57:14;25.00;99.90
40670;DHT22;26355;45.528;9.234;2023-06-14T09:59:46;25.00;99.90
40670;DHT22;26355;45.528;9.234;2023-06-14T10:02:21;24.80;99.90
40670;DHT22;26355;45.528;9.234;2023-06-14T10:04:56;25.00;99.90
40670;DHT22;26355;45.528;9.234;2023-06-14T10:07:24;25.20;99.90
40670;DHT22;26355;45.528;9.234;2023-06-14T10:09:53;25.40;99.90
40670;DHT22;26355;45.528;9.234;2023-06-14T10:12:18;25.50;99.90
40670;DHT22;26355;45.528;9.234;2023-06-14T10:14:51;25.50;99.90
40670;DHT22;26355;45.528;9.234;2023-06-14T10:17:56;25.60;99.90
40670;DHT22;26355;45.528;9.234;2023-06-14T10:23:10;26.00;99.90
40670;DHT22;26355;45.528;9.234;2023-06-14T10:25:37;26.10;99.90
40670;DHT22;26355;45.528;9.234;2023-06-14T10:28:23;26.10;99.90
40670;DHT22;26355;45.528;9.234;2023-06-14T10:33:32;25.90;99.90
40670;DHT22;26355;45.528;9.234;2023-06-14T10:36:09;26.00;99.90
40670;DHT22;26355;45.528;9.234;2023-06-14T10:38:36;25.80;99.90
40670;DHT22;26355;45.528;9.234;2023-06-14T10:41:03;25.60;99.90
40670;DHT22;26355;45.528;9.234;2023-06-14T10:43:29;25.60;99.90
40670;DHT22;26355;45.528;9.234;2023-06-14T10:46:14;25.60;99.90
40670;DHT22;26355;45.528;9.234;2023-06-14T10:48:43;25.80;99.90
40670;DHT22;26355;45.528;9.234;2023-06-14T10:51:19;25.80;99.90
40670;DHT22;26355;45.528;9.234;2023-06-14T10:53:50;25.90;99.90
40670;DHT22;26355;45.528;9.234;2023-06-14T10:56:29;26.10;99.90
40670;DHT22;26355;45.528;9.234;2023-06-14T10:58:56;25.80;99.90
40670;DHT22;26355;45.528;9.234;2023-06-14T11:01:36;25.90;99.90
40670;DHT22;26355;45.528;9.234;2023-06-14T11:04:09;25.80;99.90
40670;DHT22;26355;45.528;9.234;2023-06-14T11:07:05;25.60;99.90
40670;DHT22;26355;45.528;9.234;2023-06-14T11:12:06;25.70;99.90
40670;DHT22;26355;45.528;9.234;2023-06-14T11:14:33;25.80;99.90
40670;DHT22;26355;45.528;9.234;2023-06-14T11:16:59;25.90;99.90
40670;DHT22;26355;45.528;9.234;2023-06-14T11:19:25;26.00;99.90
40670;DHT22;26355;45.528;9.234;2023-06-14T11:21:54;26.10;99.90
40670;DHT22;26355;45.528;9.234;2023-06-14T11:24:20;26.20;99.90
40670;DHT22;26355;45.528;9.234;2023-06-14T11:26:47;26.10;99.90
40670;DHT22;26355;45.528;9.234;2023-06-14T11:29:15;26.20;99.90
40670;DHT22;26355;45.528;9.234;2023-06-14T11:31:45;26.20;99.90
40670;DHT22;26355;45.528;9.234;2023-06-14T11:34:11;26.20;99.90
40670;DHT22;26355;45.528;9.234;2023-06-14T11:36:38;26.20;99.90
40670;DHT22;26355;45.528;9.234;2023-06-14T11:39:06;26.00;99.90
40670;DHT22;26355;45.528;9.234;2023-06-14T11:41:44;26.00;99.90
40670;DHT22;26355;45.528;9.234;2023-06-14T11:44:10;26.10;99.90
40670;DHT22;26355;45.528;9.234;2023-06-14T11:46:36;26.30;99.90
40670;DHT22;26355;45.528;9.234;2023-06-14T11:49:03;26.40;99.90
40670;DHT22;26355;45.528;9.234;2023-06-14T11:51:33;26.30;99.90
40670;DHT22;26355;45.528;9.234;2023-06-14T11:54:00;26.20;99.90
40670;DHT22;26355;45.528;9.234;2023-06-14T11:56:28;26.20;99.90
40670;DHT22;26355;45.528;9.234;2023-06-14T11:58:54;26.30;99.90
40670;DHT22;26355;45.528;9.234;2023-06-14T12:01:22;26.50;99.90
40670;DHT22;26355;45.528;9.234;2023-06-14T12:03:49;26.50;99.90
40670;DHT22;26355;45.528;9.234;2023-06-14T12:06:15;26.50;99.90
40670;DHT22;26355;45.528;9.234;2023-06-14T12:08:43;26.60;99.90
40670;DHT22;26355;45.528;9.234;2023-06-14T12:11:13;26.70;99.90
40670;DHT22;26355;45.528;9.234;2023-06-14T12:13:41;26.40;99.90
40670;DHT22;26355;45.528;9.234;2023-06-14T12:16:08;26.20;99.90
40670;DHT22;26355;45.528;9.234;2023-06-14T12:18:35;26.10;99.90
40670;DHT22;26355;45.528;9.234;2023-06-14T12:21:03;25.90;99.90
40670;DHT22;26355;45.528;9.234;2023-06-14T12:26:16;26.20;99.90
40670;DHT22;26355;45.528;9.234;2023-06-14T12:28:43;26.40;99.90
40670;DHT22;26355;45.528;9.234;2023-06-14T12:31:10;26.40;99.90
40670;DHT22;26355;45.528;9.234;2023-06-14T12:33:36;26.30;99.90
40670;DHT22;26355;45.528;9.234;2023-06-14T12:36:06;26.30;99.90
40670;DHT22;26355;45.528;9.234;2023-06-14T12:38:33;26.40;99.90
40670;DHT22;26355;45.528;9.234;2023-06-14T12:40:58;26.40;99.90
40670;DHT22;26355;45.528;9.234;2023-06-14T12:43:24;26.50;99.90
40670;DHT22;26355;45.528;9.234;2023-06-14T12:45:49;26.30;99.90
40670;DHT22;26355;45.528;9.234;2023-06-14T12:48:15;26.50;99.90
40670;DHT22;26355;45.528;9.234;2023-06-14T12:50:41;26.50;99.90
40670;DHT22;26355;45.528;9.234;2023-06-14T12:53:07;26.50;99.90
40670;DHT22;26355;45.528;9.234;2023-06-14T12:55:32;26.50;99.90
40670;DHT22;26355;45.528;9.234;2023-06-14T12:57:58;26.60;99.90
40670;DHT22;26355;45.528;9.234;2023-06-14T13:00:24;26.60;99.90
40670;DHT22;26355;45.528;9.234;2023-06-14T13:02:51;26.60;99.90
40670;DHT22;26355;45.528;9.234;2023-06-14T13:05:17;26.70;99.90
40670;DHT22;26355;45.528;9.234;2023-06-14T13:07:43;26.70;99.90
40670;DHT22;26355;45.528;9.234;2023-06-14T13:10:10;26.70;99.90
40670;DHT22;26355;45.528;9.234;2023-06-14T13:12:35;26.40;99.90
40670;DHT22;26355;45.528;9.234;2023-06-14T13:15:01;26.40;99.90
40670;DHT22;26355;45.528;9.234;2023-06-14T13:17:26;26.50;99.90
40670;DHT22;26355;45.528;9.234;2023-06-14T13:19:52;26.40;99.90
40670;DHT22;26355;45.528;9.234;2023-06-14T13:22:18;26.60;99.90
40670;DHT22;26355;45.528;9.234;2023-06-14T13:24:43;26.70;99.90
40670;DHT22;26355;45.528;9.234;2023-06-14T13:27:09;26.90;99.90
40670;DHT22;26355;45.528;9.234;2023-06-14T13:29:36;26.90;99.90
40670;DHT22;26355;45.528;9.234;2023-06-14T13:32:02;26.90;99.90
40670;DHT22;26355;45.528;9.234;2023-06-14T13:34:28;27.00;99.90
40670;DHT22;26355;45.528;9.234;2023-06-14T13:36:54;27.00;99.90
40670;DHT22;26355;45.528;9.234;2023-06-14T13:39:19;27.00;99.90
40670;DHT22;26355;45.528;9.234;2023-06-14T13:41:45;27.00;99.90
40670;DHT22;26355;45.528;9.234;2023-06-14T13:44:10;27.00;99.90
40670;DHT22;26355;45.528;9.234;2023-06-14T13:46:40;27.00;99.90
40670;DHT22;26355;45.528;9.234;2023-06-14T13:49:08;27.00;99.90
40670;DHT22;26355;45.528;9.234;2023-06-14T13:51:34;27.00;99.90
40670;DHT22;26355;45.528;9.234;2023-06-14T13:54:00;27.10;99.90
40670;DHT22;26355;45.528;9.234;2023-06-14T13:56:26;27.10;99.90
40670;DHT22;26355;45.528;9.234;2023-06-14T13:58:52;26.90;99.60
40670;DHT22;26355;45.528;9.234;2023-06-14T14:01:18;26.70;99.80
40670;DHT22;26355;45.528;9.234;2023-06-14T14:03:48;26.70;99.90
40670;DHT22;26355;45.528;9.234;2023-06-14T14:06:15;26.80;99.90
40670;DHT22;26355;45.528;9.234;2023-06-14T14:08:41;26.90;99.90
40670;DHT22;26355;45.528;9.234;2023-06-14T14:11:07;26.90;99.90
40670;DHT22;26355;45.528;9.234;2023-06-14T14:13:34;27.00;99.90
40670;DHT22;26355;45.528;9.234;2023-06-14T14:16:02;27.00;99.90
40670;DHT22;26355;45.528;9.234;2023-06-14T14:18:28;27.00;99.80
40670;DHT22;26355;45.528;9.234;2023-06-14T14:20:54;27.00;99.90
40670;DHT22;26355;45.528;9.234;2023-06-14T14:23:19;27.00;99.90
40670;DHT22;26355;45.528;9.234;2023-06-14T14:25:46;27.10;99.90
40670;DHT22;26355;45.528;9.234;2023-06-14T14:28:11;27.10;99.90
40670;DHT22;26355;45.528;9.234;2023-06-14T14:30:39;27.10;99.90
40670;DHT22;26355;45.528;9.234;2023-06-14T14:33:05;27.10;99.80
40670;DHT22;26355;45.528;9.234;2023-06-14T14:35:32;27.10;99.90
40670;DHT22;26355;45.528;9.234;2023-06-14T14:37:58;27.20;99.90
40670;DHT22;26355;45.528;9.234;2023-06-14T14:40:23;27.10;99.90
40670;DHT22;26355;45.528;9.234;2023-06-14T14:42:49;27.20;99.90
40670;DHT22;26355;45.528;9.234;2023-06-14T14:45:15;27.10;99.70
40670;DHT22;26355;45.528;9.234;2023-06-14T14:47:40;27.10;99.70
40670;DHT22;26355;45.528;9.234;2023-06-14T14:50:06;27.20;99.80
40670;DHT22;26355;45.528;9.234;2023-06-14T14:52:34;27.20;99.80
40670;DHT22;26355;45.528;9.234;2023-06-14T14:55:00;27.20;99.90
40670;DHT22;26355;45.528;9.234;2023-06-14T14:57:26;27.10;99.90
40670;DHT22;26355;45.528;9.234;2023-06-14T14:59:52;26.90;99.90
40670;DHT22;26355;45.528;9.234;2023-06-14T15:02:18;26.80;99.90
40670;DHT22;26355;45.528;9.234;2023-06-14T15:04:45;26.80;99.90
40670;DHT22;26355;45.528;9.234;2023-06-14T15:07:11;26.80;99.90
40670;DHT22;26355;45.528;9.234;2023-06-14T15:09:37;26.80;99.90
40670;DHT22;26355;45.528;9.234;2023-06-14T15:12:03;26.90;99.90
40670;DHT22;26355;45.528;9.234;2023-06-14T15:14:29;26.90;99.90
40670;DHT22;26355;45.528;9.234;2023-06-14T15:16:54;26.90;99.90
40670;DHT22;26355;45.528;9.234;2023-06-14T15:19:20;27.00;99.90
40670;DHT22;26355;45.528;9.234;2023-06-14T15:21:45;26.90;99.90
40670;DHT22;26355;45.528;9.234;2023-06-14T15:24:11;26.90;99.90
40670;DHT22;26355;45.528;9.234;2023-06-14T15:26:36;27.00;99.90
40670;DHT22;26355;45.528;9.234;2023-06-14T15:29:02;27.00;99.90
40670;DHT22;26355;45.528;9.234;2023-06-14T15:31:28;27.10;99.90
40670;DHT22;26355;45.528;9.234;2023-06-14T15:33:54;27.10;99.90
40670;DHT22;26355;45.528;9.234;2023-06-14T15:36:20;27.10;99.90
40670;DHT22;26355;45.528;9.234;2023-06-14T15:38:45;27.20;99.90
40670;DHT22;26355;45.528;9.234;2023-06-14T15:41:11;27.20;99.90